createdAt,value
2023-01-17T00:00:13.350Z,18.24
2023-01-17T00:01:13.552Z,12.28
2023-01-17T00:02:13.486Z,18.92
2023-01-17T00:03:13.451Z,24.72
2023-01-17T00:04:14.025Z,28.36
2023-01-17T00:05:13.267Z,15.24
2023-01-17T00:06:13.493Z,17.32
2023-01-17T00:07:13.709Z,16.32
2023-01-17T00:08:13.887Z,22.96
2023-01-17T00:09:13.939Z,16.52
2023-01-17T00:10:12.836Z,33.92
2023-01-17T00:11:13.960Z,23.20
2023-01-17T00:12:13.200Z,19.00
2023-01-17T00:13:13.304Z,16.32
2023-01-17T00:14:13.312Z,19.92
2023-01-17T00:15:13.360Z,19.28
2023-01-17T00:16:13.513Z,27.16
2023-01-17T00:17:13.930Z,22.84
2023-01-17T00:18:12.788Z,25.76
2023-01-17T00:19:13.846Z,35.08
2023-01-17T00:20:14.007Z,47.60
2023-01-17T00:21:13.215Z,33.44
2023-01-17T00:22:13.688Z,30.40
2023-01-17T00:23:13.928Z,31.52
2023-01-17T00:24:12.906Z,27.20
2023-01-17T00:25:12.881Z,37.48
2023-01-17T00:26:14.190Z,11.68
2023-01-17T00:27:13.454Z,17.56
2023-01-17T00:28:13.709Z,18.12
2023-01-17T00:29:13.752Z,17.60
2023-01-17T00:30:13.839Z,20.76
2023-01-17T00:31:13.886Z,35.16
2023-01-17T00:32:12.898Z,26.12
2023-01-17T00:33:12.983Z,26.36
2023-01-17T00:34:12.999Z,18.88
2023-01-17T00:35:13.217Z,28.48
2023-01-17T00:36:13.386Z,18.88
2023-01-17T00:37:13.711Z,31.72
2023-01-17T00:38:14.204Z,32.88
2023-01-17T00:39:13.171Z,39.56
2023-01-17T00:40:13.197Z,29.16
2023-01-17T00:41:13.081Z,17.96
2023-01-17T00:42:13.336Z,18.92
2023-01-17T00:43:13.424Z,30.08
2023-01-17T00:44:13.575Z,21.28
2023-01-17T00:45:13.584Z,22.20
2023-01-17T00:46:13.620Z,31.40
2023-01-17T00:47:13.614Z,28.08
2023-01-17T00:48:19.726Z,25.96
2023-01-17T00:49:14.029Z,19.40
2023-01-17T00:50:13.179Z,17.44
2023-01-17T00:51:13.579Z,21.44
2023-01-17T00:52:13.490Z,21.80
2023-01-17T00:53:13.504Z,27.40
2023-01-17T00:54:13.584Z,19.52
2023-01-17T00:55:13.650Z,26.40
2023-01-17T00:56:14.012Z,34.04
2023-01-17T00:57:12.980Z,25.28
2023-01-17T00:58:12.998Z,24.96
2023-01-17T00:59:12.946Z,16.16
2023-01-17T01:00:13.012Z,11.88
2023-01-17T01:01:13.245Z,34.68
2023-01-17T01:02:13.238Z,38.96
2023-01-17T01:03:18.545Z,22.08
2023-01-17T01:04:14.856Z,22.56
2023-01-17T01:05:13.961Z,27.96
2023-01-17T01:06:13.431Z,20.48
2023-01-17T01:07:13.495Z,27.96
2023-01-17T01:08:13.292Z,16.60
2023-01-17T01:09:13.640Z,18.72
2023-01-17T01:10:13.717Z,21.12
2023-01-17T01:11:14.121Z,27.48
2023-01-17T01:12:14.727Z,29.04
2023-01-17T01:13:14.229Z,24.48
2023-01-17T01:14:18.389Z,29.72
2023-01-17T01:15:13.373Z,23.60
2023-01-17T01:16:13.321Z,14.32
2023-01-17T01:17:13.940Z,20.40
2023-01-17T01:18:13.493Z,21.56
2023-01-17T01:19:13.643Z,19.08
2023-01-17T01:20:13.747Z,14.52
2023-01-17T01:21:13.831Z,23.48
2023-01-17T01:22:13.825Z,32.04
2023-01-17T01:23:13.715Z,41.08
2023-01-17T01:24:14.081Z,35.76
2023-01-17T01:25:13.443Z,20.68
2023-01-17T01:26:14.463Z,9.36
2023-01-17T01:27:14.029Z,37.08
2023-01-17T01:28:13.544Z,24.08
2023-01-17T01:29:13.590Z,15.68
2023-01-17T01:30:13.519Z,18.20
2023-01-17T01:31:14.490Z,15.72
2023-01-17T01:32:13.493Z,27.56
2023-01-17T01:33:13.704Z,27.72
2023-01-17T01:34:13.829Z,19.04
2023-01-17T01:35:13.757Z,16.64
2023-01-17T01:36:13.791Z,15.08
2023-01-17T01:37:13.902Z,18.44
2023-01-17T01:38:12.844Z,15.36
2023-01-17T01:39:14.179Z,14.88
2023-01-17T01:40:13.201Z,8.04
2023-01-17T01:41:13.245Z,10.96
2023-01-17T01:42:13.193Z,18.20
2023-01-17T01:43:13.187Z,15.52
2023-01-17T01:44:13.228Z,11.76
2023-01-17T01:45:38.623Z,8.52
2023-01-17T01:46:18.867Z,16.56
2023-01-17T01:47:13.925Z,20.54
2023-01-17T01:48:13.087Z,26.40
2023-01-17T01:49:13.399Z,15.28
2023-01-17T01:50:23.449Z,22.80
2023-01-17T01:51:13.605Z,25.32
2023-01-17T01:52:32.643Z,31.08
2023-01-17T01:54:13.776Z,16.88
2023-01-17T01:55:19.484Z,20.40
2023-01-17T01:56:19.722Z,18.00
2023-01-17T01:57:12.848Z,11.12
2023-01-17T01:58:14.289Z,14.16
2023-01-17T01:59:18.795Z,21.68
2023-01-17T02:00:14.015Z,15.48
2023-01-17T02:01:13.549Z,11.92
2023-01-17T02:02:13.753Z,12.96
2023-01-17T02:03:13.920Z,20.52
2023-01-17T02:04:13.119Z,21.16
2023-01-17T02:05:13.065Z,13.64
2023-01-17T02:06:13.026Z,13.24
2023-01-17T02:07:13.316Z,20.72
2023-01-17T02:08:13.453Z,15.88
2023-01-17T02:09:13.573Z,10.56
2023-01-17T02:10:13.511Z,9.96
2023-01-17T02:11:13.475Z,12.16
2023-01-17T02:12:13.797Z,12.88
2023-01-17T02:13:13.669Z,11.72
2023-01-17T02:14:13.595Z,10.24
2023-01-17T02:15:13.578Z,10.68
2023-01-17T02:16:13.550Z,11.92
2023-01-17T02:17:13.502Z,13.04
2023-01-17T02:18:13.811Z,11.00
2023-01-17T02:19:13.722Z,14.84
2023-01-17T02:20:14.215Z,24.84
2023-01-17T02:21:13.188Z,19.28
2023-01-17T02:22:13.202Z,22.60
2023-01-17T02:23:13.411Z,22.00
2023-01-17T02:24:13.702Z,18.08
2023-01-17T02:25:13.593Z,11.76
2023-01-17T02:26:13.496Z,16.64
2023-01-17T02:27:13.711Z,17.76
2023-01-17T02:28:13.661Z,8.56
2023-01-17T02:29:14.013Z,10.36
2023-01-17T02:30:13.002Z,16.00
2023-01-17T02:31:13.571Z,9.56
2023-01-17T02:32:13.618Z,12.32
2023-01-17T02:33:13.711Z,10.72
2023-01-17T02:34:13.633Z,10.88
2023-01-17T02:35:13.839Z,3.04
2023-01-17T02:36:14.258Z,9.72
2023-01-17T02:37:13.176Z,9.08
2023-01-17T02:38:13.112Z,5.92
2023-01-17T02:39:13.062Z,5.24
2023-01-17T02:40:12.998Z,2.52
2023-01-17T02:41:13.072Z,4.20
2023-01-17T02:42:12.937Z,6.52
2023-01-17T02:43:13.217Z,4.56
2023-01-17T02:44:13.135Z,4.64
2023-01-17T02:45:13.009Z,7.32
2023-01-17T02:46:13.270Z,10.08
2023-01-17T02:47:13.436Z,11.16
2023-01-17T02:48:13.294Z,5.96
2023-01-17T02:49:13.524Z,7.72
2023-01-17T02:50:13.509Z,3.44
2023-01-17T02:51:13.727Z,7.20
2023-01-17T02:52:13.815Z,8.92
2023-01-17T02:53:13.814Z,8.76
2023-01-17T02:54:14.065Z,8.44
2023-01-17T02:55:13.095Z,10.64
2023-01-17T02:56:13.004Z,9.20
2023-01-17T02:57:12.987Z,8.68
2023-01-17T02:58:12.853Z,9.96
2023-01-17T02:59:14.074Z,11.52
2023-01-17T03:00:12.988Z,8.72
2023-01-17T03:01:13.380Z,13.44
2023-01-17T03:02:13.962Z,11.80
2023-01-17T03:03:13.088Z,15.36
2023-01-17T03:04:13.001Z,18.04
2023-01-17T03:05:12.995Z,15.64
2023-01-17T03:06:13.155Z,10.52
2023-01-17T03:07:13.028Z,17.28
2023-01-17T03:08:13.043Z,26.28
2023-01-17T03:09:12.992Z,19.64
2023-01-17T03:10:12.883Z,14.12
2023-01-17T03:11:13.960Z,9.84
2023-01-17T03:12:12.928Z,6.72
2023-01-17T03:13:12.812Z,5.52
2023-01-17T03:14:13.769Z,5.12
2023-01-17T03:15:13.678Z,7.32
2023-01-17T03:16:13.635Z,7.32
2023-01-17T03:17:13.604Z,7.36
2023-01-17T03:18:13.533Z,5.24
2023-01-17T03:19:13.371Z,7.32
2023-01-17T03:20:13.408Z,9.68
2023-01-17T03:21:13.491Z,7.32
2023-01-17T03:22:13.528Z,10.48
2023-01-17T03:23:13.585Z,9.40
2023-01-17T03:24:13.576Z,10.60
2023-01-17T03:25:13.553Z,9.40
2023-01-17T03:26:13.698Z,13.84
2023-01-17T03:27:14.342Z,6.80
2023-01-17T03:28:13.448Z,6.80
2023-01-17T03:29:13.782Z,14.64
2023-01-17T03:30:13.779Z,7.40
2023-01-17T03:31:13.714Z,6.16
2023-01-17T03:32:13.865Z,8.20
2023-01-17T03:33:13.856Z,10.40
2023-01-17T03:34:14.188Z,12.48
2023-01-17T03:35:13.122Z,9.60
2023-01-17T03:36:13.097Z,8.32
2023-01-17T03:37:13.305Z,12.24
2023-01-17T03:38:13.447Z,11.88
2023-01-17T03:39:13.439Z,14.32
2023-01-17T03:40:13.549Z,5.80
2023-01-17T03:41:13.750Z,6.88
2023-01-17T03:42:13.977Z,6.20
2023-01-17T03:43:13.290Z,8.92
2023-01-17T03:44:13.259Z,8.00
2023-01-17T03:45:13.108Z,6.08
2023-01-17T03:46:13.470Z,12.84
2023-01-17T03:47:13.767Z,8.52
2023-01-17T03:48:13.833Z,4.88
2023-01-17T03:49:14.085Z,8.60
2023-01-17T03:50:13.123Z,12.44
2023-01-17T03:51:13.276Z,13.16
2023-01-17T03:52:13.218Z,11.60
2023-01-17T03:53:13.557Z,8.12
2023-01-17T03:54:13.484Z,15.88
2023-01-17T03:55:13.530Z,14.00
2023-01-17T03:56:13.654Z,8.20
2023-01-17T03:57:13.833Z,11.16
2023-01-17T03:58:13.831Z,15.28
2023-01-17T03:59:13.996Z,11.12
2023-01-17T04:00:13.020Z,8.12
2023-01-17T04:01:13.039Z,5.96
2023-01-17T04:02:13.114Z,6.88
2023-01-17T04:03:13.095Z,8.12
2023-01-17T04:04:12.970Z,8.44
2023-01-17T04:05:13.007Z,6.16
2023-01-17T04:06:12.985Z,5.24
2023-01-17T04:07:12.948Z,8.68
2023-01-17T04:08:13.251Z,8.72
2023-01-17T04:09:13.269Z,8.24
2023-01-17T04:10:13.236Z,12.48
2023-01-17T04:11:13.434Z,6.84
2023-01-17T04:12:13.422Z,8.08
2023-01-17T04:13:13.528Z,8.44
2023-01-17T04:14:13.824Z,9.56
2023-01-17T04:15:14.466Z,10.64
2023-01-17T04:16:18.850Z,7.96
2023-01-17T04:17:12.946Z,10.96
2023-01-17T04:18:13.181Z,10.12
2023-01-17T04:19:13.125Z,11.08
2023-01-17T04:20:13.172Z,9.40
2023-01-17T04:21:13.307Z,10.20
2023-01-17T04:22:13.271Z,14.40
2023-01-17T04:23:13.430Z,7.96
2023-01-17T04:24:13.544Z,14.12
2023-01-17T04:25:13.488Z,10.04
2023-01-17T04:26:13.806Z,17.36
2023-01-17T04:27:13.687Z,8.72
2023-01-17T04:28:13.750Z,13.64
2023-01-17T04:29:13.625Z,11.72
2023-01-17T04:30:13.844Z,10.44
2023-01-17T04:31:13.895Z,10.24
2023-01-17T04:32:12.938Z,10.52
2023-01-17T04:33:12.950Z,17.80
2023-01-17T04:34:13.200Z,12.16
2023-01-17T04:35:13.352Z,17.16
2023-01-17T04:36:13.301Z,12.40
2023-01-17T04:37:13.470Z,9.24
2023-01-17T04:38:13.466Z,15.28
2023-01-17T04:39:13.386Z,11.44
2023-01-17T04:40:13.351Z,12.04
2023-01-17T04:41:13.594Z,15.76
2023-01-17T04:42:13.607Z,11.96
2023-01-17T04:43:13.594Z,15.60
2023-01-17T04:44:13.632Z,12.64
2023-01-17T04:45:13.589Z,8.44
2023-01-17T04:46:13.732Z,8.84
2023-01-17T04:47:13.681Z,9.76
2023-01-17T04:48:13.673Z,9.48
2023-01-17T04:49:13.681Z,9.16
2023-01-17T04:50:13.676Z,9.96
2023-01-17T04:51:13.601Z,7.92
2023-01-17T04:52:13.742Z,11.76
2023-01-17T04:53:13.685Z,15.80
2023-01-17T04:54:13.651Z,13.44
2023-01-17T04:55:13.636Z,14.80
2023-01-17T04:56:13.565Z,14.24
2023-01-17T04:57:14.792Z,9.96
2023-01-17T04:58:13.729Z,6.00
2023-01-17T04:59:14.946Z,9.88
2023-01-17T05:00:13.387Z,7.80
2023-01-17T05:01:13.587Z,14.84
2023-01-17T05:02:13.935Z,9.36
2023-01-17T05:03:12.925Z,14.12
2023-01-17T05:04:12.865Z,9.68
2023-01-17T05:05:13.920Z,8.16
2023-01-17T05:06:12.988Z,8.40
2023-01-17T05:07:13.123Z,9.12
2023-01-17T05:08:13.258Z,5.64
2023-01-17T05:09:13.212Z,9.80
2023-01-17T05:10:13.249Z,5.20
2023-01-17T05:11:13.375Z,8.60
2023-01-17T05:12:13.602Z,5.80
2023-01-17T05:13:13.907Z,4.60
2023-01-17T05:14:12.964Z,6.60
2023-01-17T05:15:13.086Z,6.28
2023-01-17T05:16:13.057Z,5.52
2023-01-17T05:17:13.008Z,4.24
2023-01-17T05:18:13.075Z,5.68
2023-01-17T05:19:13.117Z,6.00
2023-01-17T05:20:13.132Z,16.40
2023-01-17T05:21:13.151Z,13.36
2023-01-17T05:22:13.158Z,11.36
2023-01-17T05:23:13.209Z,11.12
2023-01-17T05:24:13.098Z,5.40
2023-01-17T05:25:13.115Z,10.40
2023-01-17T05:26:13.226Z,8.92
2023-01-17T05:27:13.630Z,8.48
2023-01-17T05:28:13.756Z,9.12
2023-01-17T05:29:13.943Z,8.92
2023-01-17T05:30:13.280Z,9.12
2023-01-17T05:31:13.654Z,9.56
2023-01-17T05:32:13.839Z,6.56
2023-01-17T05:33:14.115Z,13.68
2023-01-17T05:35:13.600Z,5.40
2023-01-17T05:36:13.982Z,9.36
2023-01-17T05:37:13.351Z,12.24
2023-01-17T05:38:20.605Z,6.72
2023-01-17T05:39:13.904Z,6.78
2023-01-17T05:40:17.985Z,6.36
2023-01-17T05:41:15.942Z,8.96
2023-01-17T05:42:13.003Z,6.40
2023-01-17T05:43:13.336Z,6.68
2023-01-17T05:44:13.686Z,6.60
2023-01-17T05:45:18.918Z,5.88
2023-01-17T05:46:18.214Z,6.28
2023-01-17T05:47:13.561Z,5.16
2023-01-17T05:48:13.647Z,8.12
2023-01-17T05:49:14.263Z,7.24
2023-01-17T05:50:13.382Z,6.40
2023-01-17T05:51:13.487Z,7.48
2023-01-17T05:52:13.539Z,5.88
2023-01-17T05:53:13.923Z,7.36
2023-01-17T05:54:18.297Z,7.68
2023-01-17T05:55:13.715Z,5.96
2023-01-17T05:56:13.881Z,7.72
2023-01-17T05:57:13.995Z,7.80
2023-01-17T05:58:14.079Z,12.00
2023-01-17T06:00:07.605Z,7.44
2023-01-17T06:00:14.208Z,7.44
2023-01-17T06:01:13.282Z,7.52
2023-01-17T06:02:13.309Z,6.60
2023-01-17T06:03:13.664Z,9.00
2023-01-17T06:04:13.700Z,10.28
2023-01-17T06:05:13.743Z,9.98
2023-01-17T06:06:27.814Z,13.36
2023-01-17T06:08:13.329Z,12.00
2023-01-17T06:09:13.249Z,9.77
2023-01-17T06:10:13.222Z,5.76
2023-01-17T06:11:13.355Z,6.16
2023-01-17T06:12:13.339Z,5.32
2023-01-17T06:13:13.397Z,8.12
2023-01-17T06:14:13.393Z,8.20
2023-01-17T06:15:13.272Z,8.04
2023-01-17T06:16:13.447Z,6.56
2023-01-17T06:17:13.632Z,7.36
2023-01-17T06:18:13.622Z,4.52
2023-01-17T06:19:13.605Z,8.44
2023-01-17T06:20:14.008Z,4.60
2023-01-17T06:21:13.306Z,9.68
2023-01-17T06:22:13.369Z,6.72
2023-01-17T06:23:13.736Z,7.00
2023-01-17T06:24:13.723Z,6.64
2023-01-17T06:25:13.862Z,5.64
2023-01-17T06:26:13.800Z,5.84
2023-01-17T06:27:13.710Z,6.52
2023-01-17T06:28:18.928Z,10.84
2023-01-17T06:29:13.165Z,9.24
2023-01-17T06:30:13.351Z,7.96
2023-01-17T06:31:13.731Z,6.28
2023-01-17T06:32:13.754Z,6.64
2023-01-17T06:33:14.088Z,14.76
2023-01-17T06:34:13.201Z,7.20
2023-01-17T06:35:13.274Z,7.16
2023-01-17T06:36:13.600Z,6.60
2023-01-17T06:37:13.811Z,6.52
2023-01-17T06:38:13.914Z,9.44
2023-01-17T06:39:14.988Z,9.60
2023-01-17T06:40:13.574Z,7.20
2023-01-17T06:41:13.745Z,5.48
2023-01-17T06:42:13.816Z,5.80
2023-01-17T06:43:13.734Z,8.20
2023-01-17T06:44:14.082Z,5.56
2023-01-17T06:45:13.067Z,10.32
2023-01-17T06:46:13.348Z,6.64
2023-01-17T06:47:13.290Z,3.24
2023-01-17T06:48:13.305Z,6.28
2023-01-17T06:49:13.481Z,6.88
2023-01-17T06:50:13.602Z,7.56
2023-01-17T06:51:14.073Z,4.72
2023-01-17T06:52:13.369Z,5.48
2023-01-17T06:53:13.481Z,11.36
2023-01-17T06:54:13.543Z,8.00
2023-01-17T06:55:13.420Z,6.44
2023-01-17T06:56:13.323Z,8.20
2023-01-17T06:57:13.461Z,8.04
2023-01-17T06:58:13.774Z,5.76
2023-01-17T06:59:13.690Z,6.56
2023-01-17T07:00:13.729Z,6.60
2023-01-17T07:01:13.782Z,7.76
2023-01-17T07:02:13.292Z,9.20
2023-01-17T07:03:13.608Z,5.04
2023-01-17T07:04:13.815Z,3.72
2023-01-17T07:05:13.992Z,2.52
2023-01-17T07:06:12.840Z,6.44
2023-01-17T07:07:13.783Z,6.76
2023-01-17T07:08:13.675Z,7.88
2023-01-17T07:09:14.027Z,8.84
2023-01-17T07:10:13.123Z,7.00
2023-01-17T07:11:13.030Z,4.56
2023-01-17T07:12:12.962Z,4.36
2023-01-17T07:13:13.244Z,4.04
2023-01-17T07:14:13.451Z,7.28
2023-01-17T07:15:13.590Z,10.80
2023-01-17T07:16:13.615Z,6.36
2023-01-17T07:17:13.775Z,9.76
2023-01-17T07:18:14.094Z,4.84
2023-01-17T07:19:13.511Z,7.44
2023-01-17T07:20:13.658Z,7.68
2023-01-17T07:21:13.737Z,10.04
2023-01-17T07:22:13.793Z,5.96
2023-01-17T07:23:14.155Z,7.40
2023-01-17T07:24:13.104Z,9.24
2023-01-17T07:25:12.992Z,3.48
2023-01-17T07:26:12.858Z,5.60
2023-01-17T07:27:13.740Z,5.96
2023-01-17T07:28:13.666Z,3.08
2023-01-17T07:29:13.492Z,6.12
2023-01-17T07:30:13.613Z,6.08
2023-01-17T07:31:13.707Z,6.24
2023-01-17T07:32:15.118Z,6.40
2023-01-17T07:33:13.005Z,4.60
2023-01-17T07:34:13.013Z,4.88
2023-01-17T07:35:13.087Z,7.08
2023-01-17T07:36:13.215Z,8.04
2023-01-17T07:37:15.202Z,6.64
2023-01-17T07:38:13.452Z,5.04
2023-01-17T07:39:13.341Z,4.68
2023-01-17T07:40:13.441Z,4.68
2023-01-17T07:41:13.779Z,6.24
2023-01-17T07:42:14.105Z,7.52
2023-01-17T07:43:13.262Z,6.24
2023-01-17T07:44:13.240Z,6.96
2023-01-17T07:45:13.647Z,8.04
2023-01-17T07:46:13.819Z,7.96
2023-01-17T07:47:13.818Z,6.68
2023-01-17T07:48:14.076Z,7.12
2023-01-17T07:49:13.012Z,7.24
2023-01-17T07:50:12.961Z,4.08
2023-01-17T07:51:13.012Z,3.56
2023-01-17T07:52:12.919Z,5.16
2023-01-17T07:53:13.049Z,3.00
2023-01-17T07:54:13.151Z,3.04
2023-01-17T07:55:13.238Z,5.20
2023-01-17T07:56:13.258Z,4.16
2023-01-17T07:57:13.211Z,5.44
2023-01-17T07:58:13.269Z,4.36
2023-01-17T07:59:13.226Z,4.00
2023-01-17T08:00:13.322Z,4.72
2023-01-17T08:01:13.532Z,6.24
2023-01-17T08:02:13.529Z,5.52
2023-01-17T08:03:13.562Z,4.64
2023-01-17T08:04:13.594Z,5.60
2023-01-17T08:05:13.510Z,8.04
2023-01-17T08:06:13.443Z,4.40
2023-01-17T08:07:13.350Z,8.48
2023-01-17T08:08:13.291Z,5.76
2023-01-17T08:09:13.299Z,11.24
2023-01-17T08:10:13.217Z,8.68
2023-01-17T08:11:13.252Z,5.88
2023-01-17T08:12:13.331Z,5.68
2023-01-17T08:13:13.257Z,2.84
2023-01-17T08:14:13.595Z,8.44
2023-01-17T08:15:13.519Z,8.00
2023-01-17T08:16:13.474Z,8.04
2023-01-17T08:17:13.404Z,6.68
2023-01-17T08:18:13.491Z,11.40
2023-01-17T08:19:13.423Z,13.04
2023-01-17T08:20:13.523Z,8.28
2023-01-17T08:21:13.627Z,2.64
2023-01-17T08:22:13.539Z,4.36
2023-01-17T08:23:13.512Z,5.76
2023-01-17T08:24:13.616Z,7.08
2023-01-17T08:25:13.664Z,6.72
2023-01-17T08:26:13.758Z,7.92
2023-01-17T08:27:14.180Z,5.12
2023-01-17T08:28:13.387Z,6.32
2023-01-17T08:29:13.693Z,6.56
2023-01-17T08:30:13.529Z,5.84
2023-01-17T08:31:13.478Z,5.28
2023-01-17T08:32:13.560Z,6.96
2023-01-17T08:33:13.889Z,6.32
2023-01-17T08:34:14.014Z,7.48
2023-01-17T08:35:12.978Z,5.12
2023-01-17T08:36:12.927Z,4.12
2023-01-17T08:37:12.776Z,4.52
2023-01-17T08:38:13.963Z,5.44
2023-01-17T08:39:13.052Z,4.68
2023-01-17T08:40:13.026Z,2.28
2023-01-17T08:41:12.931Z,1.68
2023-01-17T08:42:13.069Z,2.16
2023-01-17T08:43:13.054Z,1.44
2023-01-17T08:44:13.228Z,1.52
2023-01-17T08:45:13.164Z,2.40
2023-01-17T08:46:13.497Z,2.32
2023-01-17T08:47:13.545Z,2.80
2023-01-17T08:48:13.542Z,2.00
2023-01-17T08:49:13.453Z,3.08
2023-01-17T08:50:13.536Z,2.44
2023-01-17T08:51:13.718Z,4.20
2023-01-17T08:52:13.709Z,5.28
2023-01-17T08:53:13.870Z,6.32
2023-01-17T08:54:13.117Z,6.20
2023-01-17T08:55:13.047Z,5.48
2023-01-17T08:56:13.345Z,4.12
2023-01-17T08:57:13.449Z,4.00
2023-01-17T08:58:13.547Z,6.72
2023-01-17T08:59:13.468Z,2.60
2023-01-17T09:00:13.387Z,4.04
2023-01-17T09:01:13.309Z,7.92
2023-01-17T09:02:13.335Z,13.00
2023-01-17T09:03:13.489Z,7.92
2023-01-17T09:04:13.886Z,12.16
2023-01-17T09:05:13.074Z,9.72
2023-01-17T09:06:12.885Z,7.56
2023-01-17T09:07:13.979Z,13.28
2023-01-17T09:08:13.184Z,12.08
2023-01-17T09:09:13.177Z,9.96
2023-01-17T09:10:13.176Z,10.28
2023-01-17T09:11:13.649Z,7.88
2023-01-17T09:12:13.765Z,8.84
2023-01-17T09:13:13.963Z,6.36
2023-01-17T09:14:12.937Z,5.08
2023-01-17T09:15:12.913Z,5.96
2023-01-17T09:16:13.040Z,8.00
2023-01-17T09:17:14.546Z,5.12
2023-01-17T09:18:14.028Z,4.40
2023-01-17T09:19:13.082Z,4.28
2023-01-17T09:20:13.228Z,12.80
2023-01-17T09:21:13.440Z,10.68
2023-01-17T09:22:13.411Z,15.52
2023-01-17T09:23:13.580Z,13.30
2023-01-17T09:24:13.583Z,7.72
2023-01-17T09:25:13.568Z,8.80
2023-01-17T09:26:13.462Z,11.64
2023-01-17T09:27:13.474Z,5.72
2023-01-17T09:28:13.954Z,6.96
2023-01-17T09:29:13.177Z,7.82
2023-01-17T09:30:13.377Z,9.92
2023-01-17T09:31:14.722Z,3.84
2023-01-17T09:32:12.956Z,2.96
2023-01-17T09:33:13.112Z,3.28
2023-01-17T09:34:13.213Z,5.92
2023-01-17T09:35:13.375Z,3.96
2023-01-17T09:36:13.590Z,4.92
2023-01-17T09:37:13.815Z,5.20
2023-01-17T09:38:13.907Z,6.12
2023-01-17T09:39:44.763Z,3.20
2023-01-17T09:40:12.982Z,7.92
2023-01-17T09:41:13.281Z,7.64
2023-01-17T09:42:13.135Z,6.68
2023-01-17T09:43:13.016Z,6.56
2023-01-17T09:44:13.077Z,9.44
2023-01-17T09:45:13.030Z,6.72
2023-01-17T09:46:13.364Z,7.84
2023-01-17T09:47:14.016Z,8.60
2023-01-17T09:48:13.439Z,10.68
2023-01-17T09:49:13.660Z,21.24
2023-01-17T09:50:13.667Z,13.16
2023-01-17T09:51:14.128Z,13.12
2023-01-17T09:52:18.455Z,11.60
2023-01-17T09:53:13.479Z,7.92
2023-01-17T09:54:13.375Z,9.64
2023-01-17T09:55:13.588Z,6.92
2023-01-17T09:56:13.683Z,9.56
2023-01-17T09:57:13.779Z,9.04
2023-01-17T09:58:14.127Z,13.12
2023-01-17T09:59:16.835Z,11.28
2023-01-17T10:00:13.525Z,8.00
2023-01-17T10:01:13.798Z,4.72
2023-01-17T10:02:14.255Z,6.00
2023-01-17T10:03:13.776Z,7.04
2023-01-17T10:04:14.162Z,5.92
2023-01-17T10:05:13.300Z,8.48
2023-01-17T10:06:13.237Z,9.92
2023-01-17T10:07:13.163Z,8.08
2023-01-17T10:08:13.129Z,11.28
2023-01-17T10:09:12.988Z,5.44
2023-01-17T10:10:12.968Z,12.06
2023-01-17T10:11:12.829Z,15.60
2023-01-17T10:12:14.195Z,10.08
2023-01-17T10:13:13.144Z,12.44
2023-01-17T10:14:13.190Z,14.32
2023-01-17T10:15:13.196Z,12.00
2023-01-17T10:16:13.203Z,8.72
2023-01-17T10:17:13.129Z,13.24
2023-01-17T10:18:28.814Z,7.12
2023-01-17T10:19:13.787Z,10.52
2023-01-17T10:20:13.747Z,11.56
2023-01-17T10:21:13.700Z,17.32
2023-01-17T10:22:14.075Z,11.92
2023-01-17T10:23:13.403Z,9.52
2023-01-17T10:24:13.458Z,9.16
2023-01-17T10:25:13.653Z,9.48
2023-01-17T10:26:13.705Z,9.52
2023-01-17T10:27:13.641Z,9.72
2023-01-17T10:28:13.545Z,6.16
2023-01-17T10:29:13.609Z,7.36
2023-01-17T10:30:13.711Z,11.40
2023-01-17T10:31:13.657Z,6.08
2023-01-17T10:32:13.684Z,6.40
2023-01-17T10:33:13.792Z,6.80
2023-01-17T10:34:14.177Z,4.28
2023-01-17T10:35:14.875Z,6.12
2023-01-17T10:36:13.088Z,10.12
2023-01-17T10:37:13.196Z,8.92
2023-01-17T10:38:13.598Z,7.32
2023-01-17T10:39:13.929Z,9.72
2023-01-17T10:40:13.490Z,11.52
2023-01-17T10:41:13.530Z,5.44
2023-01-17T10:42:13.658Z,6.08
2023-01-17T10:43:13.770Z,7.44
2023-01-17T10:44:13.952Z,6.96
2023-01-17T10:45:13.013Z,8.00
2023-01-17T10:46:13.054Z,4.08
2023-01-17T10:47:13.271Z,3.36
2023-01-17T10:48:13.693Z,11.40
2023-01-17T10:49:13.627Z,12.32
2023-01-17T10:50:14.046Z,7.12
2023-01-17T10:51:12.949Z,9.84
2023-01-17T10:52:13.337Z,7.72
2023-01-17T10:53:13.252Z,11.44
2023-01-17T10:54:13.169Z,10.08
2023-01-17T10:55:13.282Z,10.84
2023-01-17T10:56:13.391Z,12.04
2023-01-17T10:57:13.501Z,13.16
2023-01-17T10:58:13.520Z,10.88
2023-01-17T10:59:13.841Z,11.40
2023-01-17T11:00:13.755Z,9.64
2023-01-17T11:01:14.139Z,7.48
2023-01-17T11:02:13.391Z,9.24
2023-01-17T11:03:13.677Z,5.16
2023-01-17T11:04:13.981Z,11.60
2023-01-17T11:05:12.910Z,7.92
2023-01-17T11:06:12.871Z,9.08
2023-01-17T11:07:14.072Z,10.20
2023-01-17T11:08:13.068Z,12.80
2023-01-17T11:09:17.247Z,9.96
2023-01-17T11:10:13.550Z,12.91
2023-01-17T11:11:13.869Z,15.64
2023-01-17T11:12:13.882Z,11.72
2023-01-17T11:13:14.320Z,10.88
2023-01-17T11:14:13.842Z,11.04
2023-01-17T11:15:13.909Z,13.04
2023-01-17T11:16:13.243Z,6.48
2023-01-17T11:17:13.234Z,9.72
2023-01-17T11:18:13.457Z,7.72
2023-01-17T11:19:13.591Z,12.72
2023-01-17T11:20:13.761Z,7.08
2023-01-17T11:23:13.749Z,5.10
2023-01-17T11:24:14.964Z,5.92
2023-01-17T11:25:12.981Z,8.92
2023-01-17T11:26:43.961Z,11.52
2023-01-17T11:27:13.683Z,17.12
2023-01-17T11:28:13.579Z,10.28
2023-01-17T11:29:13.624Z,6.68
2023-01-17T11:30:13.532Z,9.68
2023-01-17T11:32:05.266Z,19.20
2023-01-17T11:32:13.189Z,19.44
2023-01-17T11:33:13.349Z,21.96
2023-01-17T11:34:13.398Z,12.92
2023-01-17T11:35:13.858Z,7.80
2023-01-17T11:36:13.235Z,3.84
2023-01-17T11:37:13.659Z,5.68
2023-01-17T11:38:13.800Z,5.04
2023-01-17T11:39:14.040Z,8.44
2023-01-17T11:40:13.198Z,8.36
2023-01-17T11:41:13.455Z,5.92
2023-01-17T11:42:13.881Z,2.46
2023-01-17T11:43:14.258Z,8.32
2023-01-17T11:44:13.611Z,8.56
2023-01-17T11:45:13.775Z,10.96
2023-01-17T11:46:14.009Z,7.36
2023-01-17T11:47:13.377Z,8.12
2023-01-17T11:50:13.205Z,10.60
2023-01-17T11:52:13.397Z,6.72
2023-01-17T11:53:13.642Z,5.88
2023-01-17T11:54:48.336Z,11.52
2023-01-17T11:55:13.242Z,12.00
2023-01-17T11:56:13.311Z,6.52
2023-01-17T11:57:33.665Z,7.15
2023-01-17T11:58:13.595Z,9.16
2023-01-17T11:59:13.797Z,5.80
2023-01-17T12:00:15.174Z,8.36
2023-01-17T12:01:13.433Z,13.52
2023-01-17T12:02:13.543Z,5.80
2023-01-17T12:03:13.589Z,7.84
2023-01-17T12:04:13.504Z,5.00
2023-01-17T12:05:13.641Z,1.48
2023-01-17T12:06:13.691Z,8.40
2023-01-17T12:07:18.759Z,7.49
2023-01-17T12:08:14.227Z,5.56
2023-01-17T12:09:44.459Z,2.80
2023-01-17T12:10:14.014Z,4.56
2023-01-17T12:11:13.213Z,3.96
2023-01-17T12:12:13.488Z,4.12
2023-01-17T12:13:13.659Z,3.00
2023-01-17T12:14:14.309Z,4.13
2023-01-17T12:15:13.556Z,10.59
2023-01-17T12:16:13.657Z,9.48
2023-01-17T12:17:13.627Z,5.24
2023-01-17T12:18:13.520Z,3.00
2023-01-17T12:19:13.523Z,3.76
2023-01-17T12:20:13.592Z,2.72
2023-01-17T12:21:13.747Z,1.08
2023-01-17T12:22:13.723Z,3.56
2023-01-17T12:23:13.667Z,2.64
2023-01-17T12:24:13.917Z,4.40
2023-01-17T12:25:13.010Z,5.40
2023-01-17T12:26:13.015Z,2.24
2023-01-17T12:27:13.024Z,6.24
2023-01-17T12:28:12.995Z,3.52
2023-01-17T12:29:13.286Z,4.16
2023-01-17T12:30:13.195Z,3.56
2023-01-17T12:31:13.441Z,3.92
2023-01-17T12:32:13.707Z,0.12
2023-01-17T12:33:14.062Z,3.28
2023-01-17T12:34:13.060Z,7.00
2023-01-17T12:35:13.135Z,1.92
2023-01-17T12:36:13.119Z,1.08
2023-01-17T12:37:13.199Z,1.00
2023-01-17T12:38:27.401Z,0.12
2023-01-17T12:39:13.276Z,0.00
2023-01-17T12:40:13.251Z,0.00
2023-01-17T12:41:13.311Z,4.32
2023-01-17T12:42:13.308Z,5.56
2023-01-17T12:43:13.834Z,1.72
2023-01-17T12:44:13.829Z,3.80
2023-01-17T12:45:13.987Z,2.08
2023-01-17T12:46:13.048Z,1.32
2023-01-17T12:47:13.560Z,1.96
2023-01-17T12:48:14.035Z,1.96
2023-01-17T12:49:13.103Z,2.72
2023-01-17T12:50:13.009Z,3.08
2023-01-17T12:51:12.903Z,0.48
2023-01-17T12:52:12.870Z,2.88
2023-01-17T12:53:13.290Z,3.24
2023-01-17T12:54:13.485Z,4.20
2023-01-17T12:55:13.406Z,1.52
2023-01-17T12:56:15.898Z,1.44
2023-01-17T12:57:14.125Z,0.72
2023-01-17T12:58:13.300Z,0.72
2023-01-17T12:59:13.521Z,0.44
2023-01-17T13:00:13.478Z,3.36
2023-01-17T13:01:13.516Z,6.12
2023-01-17T13:02:13.985Z,4.04
2023-01-17T13:03:13.314Z,4.48
2023-01-17T13:04:13.375Z,1.72
2023-01-17T13:05:13.215Z,0.44
2023-01-17T13:06:13.387Z,0.56
2023-01-17T13:07:13.317Z,4.32
2023-01-17T13:08:13.253Z,2.40
2023-01-17T13:09:13.267Z,4.04
2023-01-17T13:10:13.376Z,0.96
2023-01-17T13:11:13.327Z,1.44
2023-01-17T13:12:13.318Z,4.92
2023-01-17T13:13:13.302Z,6.04
2023-01-17T13:14:13.233Z,9.80
2023-01-17T13:15:13.347Z,6.16
2023-01-17T13:16:13.479Z,4.48